Etusivu
METAR-TAF:

METAR-TAF

Lentoasemat :

Elsenborn

Bütgenbach, Belgia

Leveyspiiri: 50-28N, Pituuspiiri: 006-11E, korkeus merenpinnasta: 564 m

Tämänhetkinen sää

Tämä raportti tehtiin 2 tuntia ja 24 minuuttia sitten, kello 13.55 UTC
Tuuli 5 kn koillisesta
Lämpötila 14°C
Kosteus 41%
Ilmanpaine 1032 hPa
Näkyvyys 10 km tai enemmän

METAR: EBLB 211355Z AUTO 05005KT 9999 NCD 14/01 Q1032 BLU

Aika: 17:19 (16:19 UTC)


TAF: puuttuu

Säähavainnot ja -ennusteet yli 4000 lentoasemalta (METAR- ja TAF-raportit).

Käytössä olevat sääasemat on merkitty karttaan keltaisilla ja punaisilla pisteillä.

Aseta hiiri pisteen päälle nähdäksesi sääaseman nimen.

Klikkaa sitten nähdäksesi säähavainnot ja -ennusteet.

Kartan vaihtaminen: klikkaa mustalla rastilla varustettuja vihreitä pisteitä, niin voit zoomata sisään; viivalla varustettua vihreää pistettä, niin voit zoomata ulos tai vihreitä nuolia, niin pääset viereisille kartoille.


METAR-TAF: